sensor_id;sensor_type;location;lat;lon;timestamp;P1;durP1;ratioP1;P2;durP2;ratioP2
249;SDS011;109;19.806;-70.704;2023-03-20T00:01:54;32.17;;;6.13;;
249;SDS011;109;19.806;-70.704;2023-03-20T00:04:20;28.50;;;5.73;;
249;SDS011;109;19.806;-70.704;2023-03-20T00:06:47;20.57;;;6.13;;
249;SDS011;109;19.806;-70.704;2023-03-20T00:09:14;41.63;;;7.07;;
249;SDS011;109;19.806;-70.704;2023-03-20T00:11:47;39.87;;;6.10;;
249;SDS011;109;19.806;-70.704;2023-03-20T00:14:17;33.53;;;6.20;;
249;SDS011;109;19.806;-70.704;2023-03-20T00:16:47;26.17;;;5.33;;
249;SDS011;109;19.806;-70.704;2023-03-20T00:19:18;31.17;;;6.73;;
249;SDS011;109;19.806;-70.704;2023-03-20T00:21:48;32.73;;;7.60;;
249;SDS011;109;19.806;-70.704;2023-03-20T00:24:16;36.17;;;6.87;;
249;SDS011;109;19.806;-70.704;2023-03-20T00:26:43;28.47;;;7.37;;
249;SDS011;109;19.806;-70.704;2023-03-20T00:29:14;18.47;;;8.00;;
249;SDS011;109;19.806;-70.704;2023-03-20T00:31:55;35.97;;;7.60;;
249;SDS011;109;19.806;-70.704;2023-03-20T00:34:25;33.87;;;7.60;;
249;SDS011;109;19.806;-70.704;2023-03-20T00:36:54;36.13;;;6.73;;
249;SDS011;109;19.806;-70.704;2023-03-20T00:39:21;26.60;;;6.90;;
249;SDS011;109;19.806;-70.704;2023-03-20T00:42:01;26.03;;;6.20;;
249;SDS011;109;19.806;-70.704;2023-03-20T00:44:33;37.97;;;5.90;;
249;SDS011;109;19.806;-70.704;2023-03-20T00:47:12;36.83;;;6.53;;
249;SDS011;109;19.806;-70.704;2023-03-20T00:49:43;43.53;;;6.60;;
249;SDS011;109;19.806;-70.704;2023-03-20T00:52:13;30.83;;;6.07;;
249;SDS011;109;19.806;-70.704;2023-03-20T00:54:42;25.30;;;5.20;;
249;SDS011;109;19.806;-70.704;2023-03-20T01:00:04;54.37;;;7.90;;
249;SDS011;109;19.806;-70.704;2023-03-20T01:02:59;32.23;;;6.50;;
249;SDS011;109;19.806;-70.704;2023-03-20T01:05:36;29.33;;;6.20;;
249;SDS011;109;19.806;-70.704;2023-03-20T01:08:04;30.50;;;5.77;;
249;SDS011;109;19.806;-70.704;2023-03-20T01:10:44;45.47;;;6.27;;
249;SDS011;109;19.806;-70.704;2023-03-20T01:13:20;32.47;;;7.20;;
249;SDS011;109;19.806;-70.704;2023-03-20T01:16:01;30.53;;;5.60;;
249;SDS011;109;19.806;-70.704;2023-03-20T01:18:27;37.50;;;7.40;;
249;SDS011;109;19.806;-70.704;2023-03-20T01:21:01;44.37;;;7.47;;
249;SDS011;109;19.806;-70.704;2023-03-20T01:23:27;36.73;;;7.50;;
249;SDS011;109;19.806;-70.704;2023-03-20T01:26:01;32.30;;;7.00;;
249;SDS011;109;19.806;-70.704;2023-03-20T01:28:28;42.37;;;6.73;;
249;SDS011;109;19.806;-70.704;2023-03-20T01:31:03;28.20;;;7.17;;
249;SDS011;109;19.806;-70.704;2023-03-20T01:33:30;32.43;;;7.33;;
249;SDS011;109;19.806;-70.704;2023-03-20T01:36:04;33.43;;;7.40;;
249;SDS011;109;19.806;-70.704;2023-03-20T01:38:31;24.73;;;6.60;;
249;SDS011;109;19.806;-70.704;2023-03-20T01:41:12;26.20;;;6.90;;
249;SDS011;109;19.806;-70.704;2023-03-20T01:43:57;32.37;;;7.37;;
249;SDS011;109;19.806;-70.704;2023-03-20T01:46:27;33.27;;;8.37;;
249;SDS011;109;19.806;-70.704;2023-03-20T01:51:54;25.60;;;7.00;;
249;SDS011;109;19.806;-70.704;2023-03-20T01:54:24;32.43;;;7.33;;
249;SDS011;109;19.806;-70.704;2023-03-20T02:02:20;32.53;;;7.53;;
249;SDS011;109;19.806;-70.704;2023-03-20T02:05:01;35.67;;;7.53;;
249;SDS011;109;19.806;-70.704;2023-03-20T02:07:38;35.07;;;7.00;;
249;SDS011;109;19.806;-70.704;2023-03-20T02:10:15;21.10;;;5.70;;
249;SDS011;109;19.806;-70.704;2023-03-20T02:13:02;38.37;;;8.47;;
249;SDS011;109;19.806;-70.704;2023-03-20T02:18:49;30.77;;;7.50;;
249;SDS011;109;19.806;-70.704;2023-03-20T02:21:36;29.90;;;8.23;;
249;SDS011;109;19.806;-70.704;2023-03-20T02:27:29;32.83;;;6.90;;
249;SDS011;109;19.806;-70.704;2023-03-20T02:41:47;23.90;;;6.40;;
249;SDS011;109;19.806;-70.704;2023-03-20T02:47:35;29.93;;;6.90;;
249;SDS011;109;19.806;-70.704;2023-03-20T02:50:31;29.30;;;6.63;;
249;SDS011;109;19.806;-70.704;2023-03-20T02:53:29;20.80;;;7.03;;
249;SDS011;109;19.806;-70.704;2023-03-20T03:02:16;22.10;;;6.43;;
249;SDS011;109;19.806;-70.704;2023-03-20T03:04:55;29.37;;;7.50;;
249;SDS011;109;19.806;-70.704;2023-03-20T03:07:34;46.53;;;8.27;;
249;SDS011;109;19.806;-70.704;2023-03-20T03:12:44;40.83;;;10.07;;
249;SDS011;109;19.806;-70.704;2023-03-20T03:15:28;39.37;;;7.03;;
249;SDS011;109;19.806;-70.704;2023-03-20T03:18:09;35.47;;;7.37;;
249;SDS011;109;19.806;-70.704;2023-03-20T03:20:48;27.37;;;6.80;;
249;SDS011;109;19.806;-70.704;2023-03-20T03:23:31;28.87;;;6.63;;
249;SDS011;109;19.806;-70.704;2023-03-20T03:26:21;36.70;;;7.67;;
249;SDS011;109;19.806;-70.704;2023-03-20T03:29:32;33.10;;;8.00;;
249;SDS011;109;19.806;-70.704;2023-03-20T03:31:59;30.77;;;8.20;;
249;SDS011;109;19.806;-70.704;2023-03-20T03:34:34;21.90;;;6.37;;
249;SDS011;109;19.806;-70.704;2023-03-20T03:37:12;28.60;;;7.40;;
249;SDS011;109;19.806;-70.704;2023-03-20T03:40:19;28.23;;;7.70;;
249;SDS011;109;19.806;-70.704;2023-03-20T03:43:01;30.20;;;6.90;;
249;SDS011;109;19.806;-70.704;2023-03-20T03:45:50;27.57;;;6.70;;
249;SDS011;109;19.806;-70.704;2023-03-20T03:48:31;32.03;;;8.87;;
249;SDS011;109;19.806;-70.704;2023-03-20T03:51:13;29.70;;;7.90;;
249;SDS011;109;19.806;-70.704;2023-03-20T03:54:17;34.43;;;6.60;;
249;SDS011;109;19.806;-70.704;2023-03-20T03:57:43;25.27;;;6.57;;
249;SDS011;109;19.806;-70.704;2023-03-20T04:00:22;26.03;;;6.93;;
249;SDS011;109;19.806;-70.704;2023-03-20T04:02:58;33.87;;;7.03;;
249;SDS011;109;19.806;-70.704;2023-03-20T04:05:26;32.03;;;7.43;;
249;SDS011;109;19.806;-70.704;2023-03-20T04:08:06;21.23;;;6.67;;
249;SDS011;109;19.806;-70.704;2023-03-20T04:10:32;23.97;;;6.33;;
249;SDS011;109;19.806;-70.704;2023-03-20T04:13:07;19.97;;;7.20;;
249;SDS011;109;19.806;-70.704;2023-03-20T04:15:35;24.53;;;7.33;;
249;SDS011;109;19.806;-70.704;2023-03-20T04:18:17;40.07;;;7.77;;
249;SDS011;109;19.806;-70.704;2023-03-20T04:20:51;29.93;;;6.50;;
249;SDS011;109;19.806;-70.704;2023-03-20T04:23:18;27.87;;;6.60;;
249;SDS011;109;19.806;-70.704;2023-03-20T04:25:51;30.43;;;7.50;;
249;SDS011;109;19.806;-70.704;2023-03-20T04:28:17;23.67;;;6.80;;
249;SDS011;109;19.806;-70.704;2023-03-20T04:31:21;24.97;;;7.20;;
249;SDS011;109;19.806;-70.704;2023-03-20T04:34:24;40.60;;;8.50;;
249;SDS011;109;19.806;-70.704;2023-03-20T04:37:27;21.20;;;6.27;;
249;SDS011;109;19.806;-70.704;2023-03-20T04:40:05;30.20;;;6.60;;
249;SDS011;109;19.806;-70.704;2023-03-20T04:42:41;33.37;;;8.47;;
249;SDS011;109;19.806;-70.704;2023-03-20T04:45:27;29.83;;;7.03;;
249;SDS011;109;19.806;-70.704;2023-03-20T04:48:01;28.53;;;6.30;;
249;SDS011;109;19.806;-70.704;2023-03-20T04:50:28;20.00;;;6.20;;
249;SDS011;109;19.806;-70.704;2023-03-20T04:53:02;20.13;;;6.50;;
249;SDS011;109;19.806;-70.704;2023-03-20T04:55:29;29.83;;;7.43;;
249;SDS011;109;19.806;-70.704;2023-03-20T04:58:03;16.20;;;6.53;;
249;SDS011;109;19.806;-70.704;2023-03-20T05:00:29;22.97;;;7.37;;
249;SDS011;109;19.806;-70.704;2023-03-20T05:03:03;15.23;;;5.73;;
249;SDS011;109;19.806;-70.704;2023-03-20T05:05:30;21.53;;;5.90;;
249;SDS011;109;19.806;-70.704;2023-03-20T05:08:05;22.10;;;5.87;;
249;SDS011;109;19.806;-70.704;2023-03-20T05:10:35;13.50;;;5.83;;
249;SDS011;109;19.806;-70.704;2023-03-20T05:13:38;15.93;;;6.23;;
249;SDS011;109;19.806;-70.704;2023-03-20T05:16:30;20.50;;;6.07;;
249;SDS011;109;19.806;-70.704;2023-03-20T05:19:22;15.57;;;6.30;;
249;SDS011;109;19.806;-70.704;2023-03-20T05:22:05;14.60;;;5.73;;
249;SDS011;109;19.806;-70.704;2023-03-20T05:25:10;17.97;;;5.70;;
249;SDS011;109;19.806;-70.704;2023-03-20T05:28:01;19.83;;;6.30;;
249;SDS011;109;19.806;-70.704;2023-03-20T05:30:48;22.63;;;5.30;;
249;SDS011;109;19.806;-70.704;2023-03-20T05:33:44;21.93;;;7.43;;
249;SDS011;109;19.806;-70.704;2023-03-20T05:36:55;18.60;;;5.60;;
249;SDS011;109;19.806;-70.704;2023-03-20T05:39:49;19.03;;;6.07;;
249;SDS011;109;19.806;-70.704;2023-03-20T05:42:31;12.00;;;5.63;;
249;SDS011;109;19.806;-70.704;2023-03-20T05:45:26;20.83;;;6.83;;
249;SDS011;109;19.806;-70.704;2023-03-20T05:48:09;20.03;;;5.70;;
249;SDS011;109;19.806;-70.704;2023-03-20T05:51:14;17.33;;;7.07;;
249;SDS011;109;19.806;-70.704;2023-03-20T05:54:05;15.53;;;5.50;;
249;SDS011;109;19.806;-70.704;2023-03-20T05:56:57;18.90;;;5.37;;
249;SDS011;109;19.806;-70.704;2023-03-20T05:59:56;24.17;;;5.87;;
249;SDS011;109;19.806;-70.704;2023-03-20T06:02:45;15.77;;;5.57;;
249;SDS011;109;19.806;-70.704;2023-03-20T06:05:41;19.47;;;6.20;;
249;SDS011;109;19.806;-70.704;2023-03-20T06:08:15;16.87;;;5.77;;
249;SDS011;109;19.806;-70.704;2023-03-20T06:10:41;21.03;;;6.40;;
249;SDS011;109;19.806;-70.704;2023-03-20T06:13:15;19.30;;;6.37;;
249;SDS011;109;19.806;-70.704;2023-03-20T06:15:42;17.10;;;6.47;;
249;SDS011;109;19.806;-70.704;2023-03-20T06:18:16;19.77;;;6.30;;
249;SDS011;109;19.806;-70.704;2023-03-20T06:20:43;23.67;;;7.00;;
249;SDS011;109;19.806;-70.704;2023-03-20T06:23:16;23.03;;;7.10;;
249;SDS011;109;19.806;-70.704;2023-03-20T06:25:43;22.33;;;6.00;;
249;SDS011;109;19.806;-70.704;2023-03-20T06:28:18;15.47;;;5.17;;
249;SDS011;109;19.806;-70.704;2023-03-20T06:30:50;19.13;;;6.03;;
249;SDS011;109;19.806;-70.704;2023-03-20T06:33:24;18.53;;;5.73;;
249;SDS011;109;19.806;-70.704;2023-03-20T06:35:57;28.67;;;6.10;;
249;SDS011;109;19.806;-70.704;2023-03-20T06:38:31;15.23;;;7.10;;
249;SDS011;109;19.806;-70.704;2023-03-20T06:41:03;14.93;;;6.27;;
249;SDS011;109;19.806;-70.704;2023-03-20T06:43:37;26.27;;;6.00;;
249;SDS011;109;19.806;-70.704;2023-03-20T06:46:23;18.17;;;5.50;;
249;SDS011;109;19.806;-70.704;2023-03-20T06:48:57;18.37;;;5.80;;
249;SDS011;109;19.806;-70.704;2023-03-20T06:51:31;23.43;;;6.53;;
249;SDS011;109;19.806;-70.704;2023-03-20T06:54:05;20.93;;;6.30;;
249;SDS011;109;19.806;-70.704;2023-03-20T06:56:31;16.93;;;6.60;;
249;SDS011;109;19.806;-70.704;2023-03-20T06:59:04;19.23;;;6.53;;
249;SDS011;109;19.806;-70.704;2023-03-20T07:01:31;21.20;;;7.50;;
249;SDS011;109;19.806;-70.704;2023-03-20T07:04:06;23.37;;;7.03;;
249;SDS011;109;19.806;-70.704;2023-03-20T07:06:39;18.60;;;5.40;;
249;SDS011;109;19.806;-70.704;2023-03-20T07:09:12;24.90;;;7.10;;
249;SDS011;109;19.806;-70.704;2023-03-20T07:11:39;22.67;;;6.13;;
249;SDS011;109;19.806;-70.704;2023-03-20T07:14:13;23.03;;;7.30;;
249;SDS011;109;19.806;-70.704;2023-03-20T07:16:46;23.30;;;6.80;;
249;SDS011;109;19.806;-70.704;2023-03-20T07:19:20;23.93;;;7.27;;
249;SDS011;109;19.806;-70.704;2023-03-20T07:21:50;23.13;;;6.83;;
249;SDS011;109;19.806;-70.704;2023-03-20T07:24:38;25.07;;;7.77;;
249;SDS011;109;19.806;-70.704;2023-03-20T07:27:11;20.33;;;7.80;;
249;SDS011;109;19.806;-70.704;2023-03-20T07:29:37;20.93;;;7.27;;
249;SDS011;109;19.806;-70.704;2023-03-20T07:32:13;32.03;;;7.73;;
249;SDS011;109;19.806;-70.704;2023-03-20T07:34:53;20.37;;;6.90;;
249;SDS011;109;19.806;-70.704;2023-03-20T07:37:27;21.80;;;6.60;;
249;SDS011;109;19.806;-70.704;2023-03-20T07:39:58;23.33;;;6.93;;
249;SDS011;109;19.806;-70.704;2023-03-20T07:42:36;25.43;;;6.87;;
249;SDS011;109;19.806;-70.704;2023-03-20T07:45:48;19.40;;;6.13;;
249;SDS011;109;19.806;-70.704;2023-03-20T07:48:22;20.73;;;6.67;;
249;SDS011;109;19.806;-70.704;2023-03-20T07:50:49;28.50;;;7.53;;
249;SDS011;109;19.806;-70.704;2023-03-20T07:53:22;22.80;;;7.97;;
249;SDS011;109;19.806;-70.704;2023-03-20T07:55:48;24.00;;;7.13;;
249;SDS011;109;19.806;-70.704;2023-03-20T07:58:22;24.47;;;7.63;;
249;SDS011;109;19.806;-70.704;2023-03-20T08:00:48;25.23;;;6.77;;
249;SDS011;109;19.806;-70.704;2023-03-20T08:03:22;23.13;;;7.80;;
249;SDS011;109;19.806;-70.704;2023-03-20T08:05:49;20.73;;;7.30;;
249;SDS011;109;19.806;-70.704;2023-03-20T08:08:22;25.37;;;6.80;;
249;SDS011;109;19.806;-70.704;2023-03-20T08:10:48;22.13;;;6.80;;
249;SDS011;109;19.806;-70.704;2023-03-20T08:13:22;25.03;;;6.40;;
249;SDS011;109;19.806;-70.704;2023-03-20T08:15:48;18.47;;;7.30;;
249;SDS011;109;19.806;-70.704;2023-03-20T08:18:23;25.27;;;6.77;;
249;SDS011;109;19.806;-70.704;2023-03-20T08:20:49;19.40;;;6.43;;
249;SDS011;109;19.806;-70.704;2023-03-20T08:23:30;26.23;;;7.40;;
249;SDS011;109;19.806;-70.704;2023-03-20T08:26:04;23.37;;;8.47;;
249;SDS011;109;19.806;-70.704;2023-03-20T08:28:30;25.37;;;7.57;;
249;SDS011;109;19.806;-70.704;2023-03-20T08:31:07;17.90;;;6.73;;
249;SDS011;109;19.806;-70.704;2023-03-20T08:33:41;16.73;;;6.20;;
249;SDS011;109;19.806;-70.704;2023-03-20T08:36:09;22.83;;;6.70;;
249;SDS011;109;19.806;-70.704;2023-03-20T08:38:43;19.50;;;6.80;;
249;SDS011;109;19.806;-70.704;2023-03-20T08:41:09;19.47;;;6.70;;
249;SDS011;109;19.806;-70.704;2023-03-20T08:43:43;20.40;;;6.80;;
249;SDS011;109;19.806;-70.704;2023-03-20T08:46:29;20.70;;;6.70;;
249;SDS011;109;19.806;-70.704;2023-03-20T08:49:03;19.93;;;6.73;;
249;SDS011;109;19.806;-70.704;2023-03-20T08:51:29;18.33;;;6.53;;
249;SDS011;109;19.806;-70.704;2023-03-20T08:54:03;22.03;;;6.43;;
249;SDS011;109;19.806;-70.704;2023-03-20T08:56:30;16.03;;;5.60;;
249;SDS011;109;19.806;-70.704;2023-03-20T08:59:11;15.77;;;5.93;;
249;SDS011;109;19.806;-70.704;2023-03-20T09:01:44;23.20;;;6.37;;
249;SDS011;109;19.806;-70.704;2023-03-20T09:04:12;18.10;;;6.70;;
249;SDS011;109;19.806;-70.704;2023-03-20T09:06:45;19.77;;;7.00;;
249;SDS011;109;19.806;-70.704;2023-03-20T09:09:12;16.47;;;6.10;;
249;SDS011;109;19.806;-70.704;2023-03-20T09:11:47;21.00;;;6.50;;
249;SDS011;109;19.806;-70.704;2023-03-20T09:14:14;14.70;;;7.10;;
249;SDS011;109;19.806;-70.704;2023-03-20T09:16:47;22.03;;;7.03;;
249;SDS011;109;19.806;-70.704;2023-03-20T09:19:14;24.30;;;6.73;;
249;SDS011;109;19.806;-70.704;2023-03-20T09:21:48;25.43;;;6.90;;
249;SDS011;109;19.806;-70.704;2023-03-20T09:24:15;21.83;;;7.50;;
249;SDS011;109;19.806;-70.704;2023-03-20T09:26:48;24.37;;;6.90;;
249;SDS011;109;19.806;-70.704;2023-03-20T09:29:15;14.00;;;6.90;;
249;SDS011;109;19.806;-70.704;2023-03-20T09:31:48;12.57;;;7.37;;
249;SDS011;109;19.806;-70.704;2023-03-20T09:34:15;15.00;;;7.40;;
249;SDS011;109;19.806;-70.704;2023-03-20T09:36:48;14.60;;;5.90;;
249;SDS011;109;19.806;-70.704;2023-03-20T09:39:15;18.90;;;7.70;;
249;SDS011;109;19.806;-70.704;2023-03-20T09:41:58;16.40;;;6.03;;
249;SDS011;109;19.806;-70.704;2023-03-20T09:44:52;15.50;;;7.07;;
249;SDS011;109;19.806;-70.704;2023-03-20T09:50:27;18.80;;;7.00;;
249;SDS011;109;19.806;-70.704;2023-03-20T09:55:56;25.10;;;8.20;;
249;SDS011;109;19.806;-70.704;2023-03-20T09:58:31;23.50;;;8.27;;
249;SDS011;109;19.806;-70.704;2023-03-20T10:01:10;17.50;;;7.53;;
249;SDS011;109;19.806;-70.704;2023-03-20T10:03:50;21.33;;;7.97;;
249;SDS011;109;19.806;-70.704;2023-03-20T10:06:27;21.03;;;6.97;;
249;SDS011;109;19.806;-70.704;2023-03-20T10:08:54;19.13;;;7.03;;
249;SDS011;109;19.806;-70.704;2023-03-20T10:11:33;18.07;;;6.87;;
249;SDS011;109;19.806;-70.704;2023-03-20T10:19:51;35.03;;;21.63;;
249;SDS011;109;19.806;-70.704;2023-03-20T10:22:33;33.57;;;16.60;;
249;SDS011;109;19.806;-70.704;2023-03-20T10:25:30;67.63;;;54.43;;
249;SDS011;109;19.806;-70.704;2023-03-20T10:43:22;94.90;;;74.13;;
249;SDS011;109;19.806;-70.704;2023-03-20T10:48:46;57.50;;;38.83;;
249;SDS011;109;19.806;-70.704;2023-03-20T10:51:24;52.27;;;32.57;;
249;SDS011;109;19.806;-70.704;2023-03-20T10:54:14;51.03;;;32.30;;
249;SDS011;109;19.806;-70.704;2023-03-20T10:56:46;45.53;;;26.50;;
249;SDS011;109;19.806;-70.704;2023-03-20T10:59:18;38.20;;;18.90;;
249;SDS011;109;19.806;-70.704;2023-03-20T11:01:52;37.80;;;18.20;;
249;SDS011;109;19.806;-70.704;2023-03-20T11:04:18;34.73;;;17.47;;
249;SDS011;109;19.806;-70.704;2023-03-20T11:06:51;24.40;;;13.40;;
249;SDS011;109;19.806;-70.704;2023-03-20T11:09:28;34.47;;;16.50;;
249;SDS011;109;19.806;-70.704;2023-03-20T11:11:58;37.83;;;18.10;;
249;SDS011;109;19.806;-70.704;2023-03-20T11:14:36;25.77;;;13.50;;
249;SDS011;109;19.806;-70.704;2023-03-20T11:17:05;28.03;;;11.80;;
249;SDS011;109;19.806;-70.704;2023-03-20T11:19:38;30.23;;;12.60;;
249;SDS011;109;19.806;-70.704;2023-03-20T11:22:08;28.53;;;12.10;;
249;SDS011;109;19.806;-70.704;2023-03-20T11:24:56;23.27;;;9.60;;
249;SDS011;109;19.806;-70.704;2023-03-20T11:27:27;23.80;;;8.93;;
249;SDS011;109;19.806;-70.704;2023-03-20T11:29:56;22.37;;;8.40;;
249;SDS011;109;19.806;-70.704;2023-03-20T11:32:32;22.33;;;6.77;;
249;SDS011;109;19.806;-70.704;2023-03-20T11:35:17;17.40;;;6.67;;
249;SDS011;109;19.806;-70.704;2023-03-20T11:37:48;22.60;;;6.53;;
249;SDS011;109;19.806;-70.704;2023-03-20T11:40:24;19.37;;;7.20;;
249;SDS011;109;19.806;-70.704;2023-03-20T11:45:33;31.37;;;7.17;;
249;SDS011;109;19.806;-70.704;2023-03-20T11:48:02;38.73;;;7.80;;
249;SDS011;109;19.806;-70.704;2023-03-20T11:50:33;39.17;;;7.53;;
249;SDS011;109;19.806;-70.704;2023-03-20T11:53:27;26.30;;;6.40;;
249;SDS011;109;19.806;-70.704;2023-03-20T11:56:12;32.63;;;6.50;;
249;SDS011;109;19.806;-70.704;2023-03-20T11:58:55;42.87;;;26.03;;
249;SDS011;109;19.806;-70.704;2023-03-20T12:01:25;50.90;;;12.33;;
249;SDS011;109;19.806;-70.704;2023-03-20T12:06:26;26.77;;;8.07;;
249;SDS011;109;19.806;-70.704;2023-03-20T12:09:08;28.67;;;6.13;;
249;SDS011;109;19.806;-70.704;2023-03-20T12:14:17;29.90;;;7.80;;
249;SDS011;109;19.806;-70.704;2023-03-20T12:17:18;32.27;;;7.33;;
249;SDS011;109;19.806;-70.704;2023-03-20T12:20:13;31.03;;;7.67;;
249;SDS011;109;19.806;-70.704;2023-03-20T12:28:35;18.57;;;5.87;;
249;SDS011;109;19.806;-70.704;2023-03-20T12:33:51;28.23;;;5.30;;
249;SDS011;109;19.806;-70.704;2023-03-20T12:36:35;27.37;;;6.13;;
249;SDS011;109;19.806;-70.704;2023-03-20T12:39:05;28.87;;;6.30;;
249;SDS011;109;19.806;-70.704;2023-03-20T12:44:37;51.30;;;6.70;;
249;SDS011;109;19.806;-70.704;2023-03-20T12:55:38;30.53;;;5.90;;
249;SDS011;109;19.806;-70.704;2023-03-20T13:01:07;55.00;;;7.97;;
249;SDS011;109;19.806;-70.704;2023-03-20T13:09:34;20.73;;;5.90;;
249;SDS011;109;19.806;-70.704;2023-03-20T13:12:14;46.50;;;7.43;;
249;SDS011;109;19.806;-70.704;2023-03-20T13:14:59;46.87;;;7.50;;
249;SDS011;109;19.806;-70.704;2023-03-20T13:20:47;32.30;;;7.00;;
249;SDS011;109;19.806;-70.704;2023-03-20T13:28:48;31.03;;;6.57;;
249;SDS011;109;19.806;-70.704;2023-03-20T13:31:49;37.83;;;6.50;;
249;SDS011;109;19.806;-70.704;2023-03-20T13:34:43;42.07;;;8.50;;
249;SDS011;109;19.806;-70.704;2023-03-20T13:37:34;32.03;;;6.90;;
249;SDS011;109;19.806;-70.704;2023-03-20T13:42:54;40.40;;;7.57;;
249;SDS011;109;19.806;-70.704;2023-03-20T13:45:41;52.97;;;8.73;;
249;SDS011;109;19.806;-70.704;2023-03-20T13:54:09;30.97;;;6.90;;
249;SDS011;109;19.806;-70.704;2023-03-20T13:56:51;53.30;;;6.90;;
249;SDS011;109;19.806;-70.704;2023-03-20T13:59:39;39.90;;;7.07;;
249;SDS011;109;19.806;-70.704;2023-03-20T14:02:14;22.73;;;5.07;;
249;SDS011;109;19.806;-70.704;2023-03-20T14:05:09;35.10;;;6.50;;
249;SDS011;109;19.806;-70.704;2023-03-20T14:07:56;26.27;;;6.10;;
249;SDS011;109;19.806;-70.704;2023-03-20T14:12:50;29.73;;;4.87;;
249;SDS011;109;19.806;-70.704;2023-03-20T14:15:27;27.30;;;5.50;;
249;SDS011;109;19.806;-70.704;2023-03-20T14:17:57;21.40;;;4.73;;
249;SDS011;109;19.806;-70.704;2023-03-20T14:20:34;20.23;;;4.80;;
249;SDS011;109;19.806;-70.704;2023-03-20T14:23:04;24.47;;;4.80;;
249;SDS011;109;19.806;-70.704;2023-03-20T14:25:35;34.27;;;6.27;;
249;SDS011;109;19.806;-70.704;2023-03-20T14:30:37;32.57;;;6.03;;
249;SDS011;109;19.806;-70.704;2023-03-20T14:33:22;41.70;;;6.30;;
249;SDS011;109;19.806;-70.704;2023-03-20T14:38:48;56.83;;;8.10;;
249;SDS011;109;19.806;-70.704;2023-03-20T14:47:52;23.87;;;4.97;;
249;SDS011;109;19.806;-70.704;2023-03-20T14:50:31;22.00;;;5.30;;
249;SDS011;109;19.806;-70.704;2023-03-20T14:53:08;41.97;;;7.07;;
249;SDS011;109;19.806;-70.704;2023-03-20T15:03:53;46.33;;;8.90;;
249;SDS011;109;19.806;-70.704;2023-03-20T15:06:25;44.47;;;8.50;;
249;SDS011;109;19.806;-70.704;2023-03-20T15:08:54;35.67;;;7.10;;
249;SDS011;109;19.806;-70.704;2023-03-20T15:11:24;41.37;;;7.63;;
249;SDS011;109;19.806;-70.704;2023-03-20T15:13:51;41.30;;;7.30;;
249;SDS011;109;19.806;-70.704;2023-03-20T15:16:27;51.67;;;9.10;;
249;SDS011;109;19.806;-70.704;2023-03-20T15:18:56;48.97;;;9.90;;
249;SDS011;109;19.806;-70.704;2023-03-20T15:21:33;43.40;;;7.53;;
249;SDS011;109;19.806;-70.704;2023-03-20T15:24:03;28.00;;;5.50;;
249;SDS011;109;19.806;-70.704;2023-03-20T15:26:31;41.50;;;7.77;;
249;SDS011;109;19.806;-70.704;2023-03-20T15:29:03;36.70;;;7.57;;
249;SDS011;109;19.806;-70.704;2023-03-20T15:31:36;42.30;;;7.40;;
249;SDS011;109;19.806;-70.704;2023-03-20T15:34:24;33.10;;;7.30;;
249;SDS011;109;19.806;-70.704;2023-03-20T15:36:56;33.23;;;7.87;;
249;SDS011;109;19.806;-70.704;2023-03-20T15:39:26;49.03;;;8.87;;
249;SDS011;109;19.806;-70.704;2023-03-20T15:42:01;58.37;;;11.43;;
249;SDS011;109;19.806;-70.704;2023-03-20T15:44:38;48.37;;;8.33;;
249;SDS011;109;19.806;-70.704;2023-03-20T15:49:36;54.30;;;8.10;;
249;SDS011;109;19.806;-70.704;2023-03-20T15:55:18;48.37;;;7.60;;
249;SDS011;109;19.806;-70.704;2023-03-20T15:57:46;43.37;;;8.20;;
249;SDS011;109;19.806;-70.704;2023-03-20T16:03:02;32.50;;;7.50;;
249;SDS011;109;19.806;-70.704;2023-03-20T16:05:33;31.73;;;7.33;;
249;SDS011;109;19.806;-70.704;2023-03-20T16:10:41;39.27;;;7.70;;
249;SDS011;109;19.806;-70.704;2023-03-20T16:13:12;35.80;;;7.57;;
249;SDS011;109;19.806;-70.704;2023-03-20T16:15:41;57.90;;;8.53;;
249;SDS011;109;19.806;-70.704;2023-03-20T16:18:09;38.73;;;7.80;;
249;SDS011;109;19.806;-70.704;2023-03-20T16:20:47;47.50;;;7.33;;
249;SDS011;109;19.806;-70.704;2023-03-20T16:23:25;41.87;;;8.60;;
249;SDS011;109;19.806;-70.704;2023-03-20T16:26:04;26.73;;;6.30;;
249;SDS011;109;19.806;-70.704;2023-03-20T16:28:34;27.63;;;6.20;;
249;SDS011;109;19.806;-70.704;2023-03-20T16:31:12;27.80;;;7.03;;
249;SDS011;109;19.806;-70.704;2023-03-20T16:33:43;31.37;;;7.90;;
249;SDS011;109;19.806;-70.704;2023-03-20T16:36:17;53.90;;;10.87;;
249;SDS011;109;19.806;-70.704;2023-03-20T16:39:04;42.77;;;8.37;;
249;SDS011;109;19.806;-70.704;2023-03-20T16:41:43;41.50;;;7.77;;
249;SDS011;109;19.806;-70.704;2023-03-20T16:44:11;61.50;;;8.97;;
249;SDS011;109;19.806;-70.704;2023-03-20T16:46:56;49.60;;;8.70;;
249;SDS011;109;19.806;-70.704;2023-03-20T16:51:57;30.87;;;7.57;;
249;SDS011;109;19.806;-70.704;2023-03-20T16:54:25;35.07;;;7.10;;
249;SDS011;109;19.806;-70.704;2023-03-20T16:56:55;46.67;;;10.10;;
249;SDS011;109;19.806;-70.704;2023-03-20T16:59:22;48.17;;;8.93;;
249;SDS011;109;19.806;-70.704;2023-03-20T17:01:50;36.40;;;9.40;;
249;SDS011;109;19.806;-70.704;2023-03-20T17:04:22;33.90;;;8.27;;
249;SDS011;109;19.806;-70.704;2023-03-20T17:07:00;33.17;;;7.10;;
249;SDS011;109;19.806;-70.704;2023-03-20T17:12:41;33.60;;;8.93;;
249;SDS011;109;19.806;-70.704;2023-03-20T17:15:20;41.57;;;8.87;;
249;SDS011;109;19.806;-70.704;2023-03-20T17:17:49;44.57;;;8.40;;
249;SDS011;109;19.806;-70.704;2023-03-20T17:20:17;41.70;;;8.83;;
249;SDS011;109;19.806;-70.704;2023-03-20T17:22:48;37.70;;;8.53;;
249;SDS011;109;19.806;-70.704;2023-03-20T17:25:15;33.93;;;8.17;;
249;SDS011;109;19.806;-70.704;2023-03-20T17:27:41;54.87;;;9.60;;
249;SDS011;109;19.806;-70.704;2023-03-20T17:30:16;43.37;;;8.20;;
249;SDS011;109;19.806;-70.704;2023-03-20T17:32:48;46.70;;;9.10;;
249;SDS011;109;19.806;-70.704;2023-03-20T17:35:14;32.47;;;8.40;;
249;SDS011;109;19.806;-70.704;2023-03-20T17:37:41;32.00;;;8.37;;
249;SDS011;109;19.806;-70.704;2023-03-20T17:43:01;27.63;;;7.57;;
249;SDS011;109;19.806;-70.704;2023-03-20T17:45:27;36.10;;;8.13;;
249;SDS011;109;19.806;-70.704;2023-03-20T17:47:54;31.67;;;8.00;;
249;SDS011;109;19.806;-70.704;2023-03-20T17:50:22;43.37;;;10.03;;
249;SDS011;109;19.806;-70.704;2023-03-20T17:52:51;34.77;;;9.23;;
249;SDS011;109;19.806;-70.704;2023-03-20T17:55:18;70.23;;;9.80;;
249;SDS011;109;19.806;-70.704;2023-03-20T17:57:45;34.33;;;7.40;;
249;SDS011;109;19.806;-70.704;2023-03-20T18:02:42;26.17;;;6.87;;
249;SDS011;109;19.806;-70.704;2023-03-20T18:05:09;34.57;;;7.20;;
249;SDS011;109;19.806;-70.704;2023-03-20T18:07:36;53.43;;;8.10;;
249;SDS011;109;19.806;-70.704;2023-03-20T18:10:04;52.27;;;8.83;;
249;SDS011;109;19.806;-70.704;2023-03-20T18:12:37;35.73;;;6.83;;
249;SDS011;109;19.806;-70.704;2023-03-20T18:15:04;37.30;;;6.70;;
249;SDS011;109;19.806;-70.704;2023-03-20T18:17:30;24.63;;;6.40;;
249;SDS011;109;19.806;-70.704;2023-03-20T18:19:57;36.23;;;7.37;;
249;SDS011;109;19.806;-70.704;2023-03-20T18:22:23;29.83;;;6.97;;
249;SDS011;109;19.806;-70.704;2023-03-20T18:24:50;29.63;;;7.57;;
249;SDS011;109;19.806;-70.704;2023-03-20T18:27:17;31.20;;;6.50;;
249;SDS011;109;19.806;-70.704;2023-03-20T18:29:43;25.80;;;6.63;;
249;SDS011;109;19.806;-70.704;2023-03-20T18:32:10;29.60;;;6.70;;
249;SDS011;109;19.806;-70.704;2023-03-20T18:34:36;32.70;;;7.03;;
249;SDS011;109;19.806;-70.704;2023-03-20T18:37:03;33.10;;;7.63;;
249;SDS011;109;19.806;-70.704;2023-03-20T18:39:32;39.27;;;8.83;;
249;SDS011;109;19.806;-70.704;2023-03-20T18:41:59;39.97;;;8.30;;